sensor_id;sensor_type;location;lat;lon;timestamp;pressure;altitude;pressure_sealevel;temperature;humidity
55010;BME280;40903;51.638;7.528;2023-08-12T00:00:10;101225.53;;;21.72;100.00
55010;BME280;40903;51.638;7.528;2023-08-12T00:02:40;101231.41;;;21.71;100.00
55010;BME280;40903;51.638;7.528;2023-08-12T00:05:07;101229.81;;;21.70;100.00
55010;BME280;40903;51.638;7.528;2023-08-12T00:07:34;101222.97;;;21.67;100.00
55010;BME280;40903;51.638;7.528;2023-08-12T00:10:01;101218.59;;;21.66;100.00
55010;BME280;40903;51.638;7.528;2023-08-12T00:12:28;101216.53;;;21.63;100.00
55010;BME280;40903;51.638;7.528;2023-08-12T00:14:54;101212.09;;;21.62;100.00
55010;BME280;40903;51.638;7.528;2023-08-12T00:17:20;101207.72;;;21.61;100.00
55010;BME280;40903;51.638;7.528;2023-08-12T00:19:45;101197.78;;;21.60;100.00
55010;BME280;40903;51.638;7.528;2023-08-12T00:22:12;101193.72;;;21.58;100.00
55010;BME280;40903;51.638;7.528;2023-08-12T00:24:38;101196.50;;;21.58;100.00
55010;BME280;40903;51.638;7.528;2023-08-12T00:27:03;101191.31;;;21.56;100.00
55010;BME280;40903;51.638;7.528;2023-08-12T00:29:29;101194.88;;;21.57;100.00
55010;BME280;40903;51.638;7.528;2023-08-12T00:31:55;101200.78;;;21.55;100.00
55010;BME280;40903;51.638;7.528;2023-08-12T00:34:21;101186.44;;;21.53;100.00
55010;BME280;40903;51.638;7.528;2023-08-12T00:36:46;101187.59;;;21.52;100.00
55010;BME280;40903;51.638;7.528;2023-08-12T00:39:12;101187.97;;;21.51;100.00
55010;BME280;40903;51.638;7.528;2023-08-12T00:41:38;101184.75;;;21.49;100.00
55010;BME280;40903;51.638;7.528;2023-08-12T00:44:03;101181.16;;;21.48;100.00
55010;BME280;40903;51.638;7.528;2023-08-12T00:46:29;101178.72;;;21.47;100.00
55010;BME280;40903;51.638;7.528;2023-08-12T00:48:54;101183.94;;;21.48;100.00
55010;BME280;40903;51.638;7.528;2023-08-12T00:51:20;101182.31;;;21.47;100.00
55010;BME280;40903;51.638;7.528;2023-08-12T00:53:46;101176.31;;;21.45;100.00
55010;BME280;40903;51.638;7.528;2023-08-12T00:56:12;101179.09;;;21.45;100.00
55010;BME280;40903;51.638;7.528;2023-08-12T00:58:39;101171.91;;;21.44;100.00
55010;BME280;40903;51.638;7.528;2023-08-12T01:01:05;101174.25;;;21.42;100.00
55010;BME280;40903;51.638;7.528;2023-08-12T01:03:30;101159.88;;;21.40;100.00
55010;BME280;40903;51.638;7.528;2023-08-12T01:05:56;101160.59;;;21.37;100.00
55010;BME280;40903;51.638;7.528;2023-08-12T01:08:24;101161.75;;;21.36;100.00
55010;BME280;40903;51.638;7.528;2023-08-12T01:11:42;101162.13;;;21.35;100.00
55010;BME280;40903;51.638;7.528;2023-08-12T01:16:45;101151.69;;;21.32;100.00
55010;BME280;40903;51.638;7.528;2023-08-12T01:19:21;101148.13;;;21.31;100.00
55010;BME280;40903;51.638;7.528;2023-08-12T01:21:53;101154.84;;;21.30;100.00
55010;BME280;40903;51.638;7.528;2023-08-12T01:24:21;101158.78;;;21.29;100.00
55010;BME280;40903;51.638;7.528;2023-08-12T01:26:47;101160.72;;;21.29;100.00
55010;BME280;40903;51.638;7.528;2023-08-12T01:29:12;101161.09;;;21.27;100.00
55010;BME280;40903;51.638;7.528;2023-08-12T01:31:45;101171.72;;;21.25;100.00
55010;BME280;40903;51.638;7.528;2023-08-12T01:34:20;101161.78;;;21.24;100.00
55010;BME280;40903;51.638;7.528;2023-08-12T01:36:56;101165.72;;;21.23;100.00
55010;BME280;40903;51.638;7.528;2023-08-12T01:39:23;101170.09;;;21.24;100.00
55010;BME280;40903;51.638;7.528;2023-08-12T01:41:50;101161.31;;;21.22;100.00
55010;BME280;40903;51.638;7.528;2023-08-12T01:44:16;101168.03;;;21.21;100.00
55010;BME280;40903;51.638;7.528;2023-08-12T01:46:43;101160.53;;;21.22;100.00
55010;BME280;40903;51.638;7.528;2023-08-12T01:49:09;101163.66;;;21.20;100.00
55010;BME280;40903;51.638;7.528;2023-08-12T01:51:34;101158.47;;;21.19;100.00
55010;BME280;40903;51.638;7.528;2023-08-12T01:53:59;101148.88;;;21.16;100.00
55010;BME280;40903;51.638;7.528;2023-08-12T01:56:25;101155.31;;;21.20;100.00
55010;BME280;40903;51.638;7.528;2023-08-12T01:58:50;101153.25;;;21.17;100.00
55010;BME280;40903;51.638;7.528;2023-08-12T02:01:16;101146.09;;;21.16;100.00
55010;BME280;40903;51.638;7.528;2023-08-12T02:03:41;101148.41;;;21.14;100.00
55010;BME280;40903;51.638;7.528;2023-08-12T02:06:06;101143.66;;;21.15;100.00
55010;BME280;40903;51.638;7.528;2023-08-12T02:08:32;101144.03;;;21.13;100.00
55010;BME280;40903;51.638;7.528;2023-08-12T02:10:57;101147.13;;;21.12;100.00
55010;BME280;40903;51.638;7.528;2023-08-12T02:13:22;101139.97;;;21.11;100.00
55010;BME280;40903;51.638;7.528;2023-08-12T02:15:48;101139.97;;;21.11;100.00
55010;BME280;40903;51.638;7.528;2023-08-12T02:18:13;101138.38;;;21.10;100.00
55010;BME280;40903;51.638;7.528;2023-08-12T02:20:40;101132.81;;;21.10;100.00
55010;BME280;40903;51.638;7.528;2023-08-12T02:23:06;101131.22;;;21.09;100.00
55010;BME280;40903;51.638;7.528;2023-08-12T02:25:31;101133.97;;;21.09;100.00
55010;BME280;40903;51.638;7.528;2023-08-12T02:27:56;101132.38;;;21.08;100.00
55010;BME280;40903;51.638;7.528;2023-08-12T02:30:22;101131.22;;;21.09;100.00
55010;BME280;40903;51.638;7.528;2023-08-12T02:32:47;101128.78;;;21.07;100.00
55010;BME280;40903;51.638;7.528;2023-08-12T02:35:12;101135.94;;;21.08;100.00
55010;BME280;40903;51.638;7.528;2023-08-12T02:37:38;101140.69;;;21.08;100.00
55010;BME280;40903;51.638;7.528;2023-08-12T02:40:04;101133.16;;;21.08;100.00
55010;BME280;40903;51.638;7.528;2023-08-12T02:42:32;101127.59;;;21.08;100.00
55010;BME280;40903;51.638;7.528;2023-08-12T02:44:58;101124.38;;;21.06;100.00
55010;BME280;40903;51.638;7.528;2023-08-12T02:47:25;101129.47;;;21.04;100.00
55010;BME280;40903;51.638;7.528;2023-08-12T02:49:50;101115.94;;;21.03;100.00
55010;BME280;40903;51.638;7.528;2023-08-12T02:52:16;101117.94;;;21.02;100.00
55010;BME280;40903;51.638;7.528;2023-08-12T02:54:41;101115.50;;;21.01;100.00
55010;BME280;40903;51.638;7.528;2023-08-12T02:57:07;101116.31;;;21.01;100.00
55010;BME280;40903;51.638;7.528;2023-08-12T02:59:32;101114.34;;;21.02;100.00
55010;BME280;40903;51.638;7.528;2023-08-12T03:01:59;101111.94;;;21.00;100.00
55010;BME280;40903;51.638;7.528;2023-08-12T03:04:25;101109.16;;;21.00;100.00
55010;BME280;40903;51.638;7.528;2023-08-12T03:06:50;101108.34;;;21.00;100.00
55010;BME280;40903;51.638;7.528;2023-08-12T03:09:15;101100.38;;;20.98;100.00
55010;BME280;40903;51.638;7.528;2023-08-12T03:11:42;101098.28;;;20.95;100.00
55010;BME280;40903;51.638;7.528;2023-08-12T03:14:08;101101.44;;;20.94;100.00
55010;BME280;40903;51.638;7.528;2023-08-12T03:16:33;101095.44;;;20.92;100.00
55010;BME280;40903;51.638;7.528;2023-08-12T03:18:58;101095.44;;;20.92;100.00
55010;BME280;40903;51.638;7.528;2023-08-12T03:21:24;101089.88;;;20.92;100.00
55010;BME280;40903;51.638;7.528;2023-08-12T03:23:49;101086.66;;;20.90;100.00
55010;BME280;40903;51.638;7.528;2023-08-12T03:26:15;101081.09;;;20.90;100.00
55010;BME280;40903;51.638;7.528;2023-08-12T03:28:41;101075.56;;;20.90;100.00
55010;BME280;40903;51.638;7.528;2023-08-12T03:31:06;101079.13;;;20.90;100.00
55010;BME280;40903;51.638;7.528;2023-08-12T03:33:31;101072.69;;;20.86;100.00
55010;BME280;40903;51.638;7.528;2023-08-12T03:35:58;101065.72;;;20.80;100.00
55010;BME280;40903;51.638;7.528;2023-08-12T03:38:24;101066.53;;;20.81;100.00
55010;BME280;40903;51.638;7.528;2023-08-12T03:40:50;101065.25;;;20.78;100.00
55010;BME280;40903;51.638;7.528;2023-08-12T03:43:15;101073.22;;;20.80;100.00
55010;BME280;40903;51.638;7.528;2023-08-12T03:45:44;101068.03;;;20.78;100.00
55010;BME280;40903;51.638;7.528;2023-08-12T03:48:10;101062.94;;;20.80;100.00
55010;BME280;40903;51.638;7.528;2023-08-12T03:50:38;101066.88;;;20.79;100.00
55010;BME280;40903;51.638;7.528;2023-08-12T03:53:04;101059.25;;;20.76;100.00
55010;BME280;40903;51.638;7.528;2023-08-12T03:55:31;101059.25;;;20.76;100.00
55010;BME280;40903;51.638;7.528;2023-08-12T03:57:58;101064.34;;;20.74;100.00
55010;BME280;40903;51.638;7.528;2023-08-12T04:00:23;101057.53;;;20.72;100.00
55010;BME280;40903;51.638;7.528;2023-08-12T04:02:48;101055.56;;;20.72;100.00
55010;BME280;40903;51.638;7.528;2023-08-12T04:05:14;101048.41;;;20.71;100.00
55010;BME280;40903;51.638;7.528;2023-08-12T04:07:40;101048.41;;;20.71;100.00
55010;BME280;40903;51.638;7.528;2023-08-12T04:10:06;101040.91;;;20.72;100.00
55010;BME280;40903;51.638;7.528;2023-08-12T04:12:32;101041.25;;;20.70;100.00
55010;BME280;40903;51.638;7.528;2023-08-12T04:14:57;101031.78;;;20.71;100.00
55010;BME280;40903;51.638;7.528;2023-08-12T04:17:23;101038.94;;;20.72;100.00
55010;BME280;40903;51.638;7.528;2023-08-12T04:19:48;101033.41;;;20.72;100.00
55010;BME280;40903;51.638;7.528;2023-08-12T04:22:14;101031.09;;;20.74;100.00
55010;BME280;40903;51.638;7.528;2023-08-12T04:24:40;101022.78;;;20.74;100.00
55010;BME280;40903;51.638;7.528;2023-08-12T04:27:05;101019.53;;;20.72;100.00
55010;BME280;40903;51.638;7.528;2023-08-12T04:29:30;101015.63;;;20.73;100.00
55010;BME280;40903;51.638;7.528;2023-08-12T04:31:56;101018.38;;;20.73;100.00
55010;BME280;40903;51.638;7.528;2023-08-12T04:34:21;101015.28;;;20.75;100.00
55010;BME280;40903;51.638;7.528;2023-08-12T04:36:46;101007.41;;;20.77;100.00
55010;BME280;40903;51.638;7.528;2023-08-12T04:39:12;101009.81;;;20.78;100.00
55010;BME280;40903;51.638;7.528;2023-08-12T04:41:39;101010.75;;;20.82;100.00
55010;BME280;40903;51.638;7.528;2023-08-12T04:44:05;101006.47;;;20.85;100.00
55010;BME280;40903;51.638;7.528;2023-08-12T04:46:30;101003.81;;;20.88;100.00
55010;BME280;40903;51.638;7.528;2023-08-12T04:48:56;101002.19;;;20.87;100.00
55010;BME280;40903;51.638;7.528;2023-08-12T04:51:21;101003.81;;;20.88;100.00
55010;BME280;40903;51.638;7.528;2023-08-12T04:53:47;101001.50;;;20.90;100.00
55010;BME280;40903;51.638;7.528;2023-08-12T04:56:12;100990.41;;;20.90;100.00
55010;BME280;40903;51.638;7.528;2023-08-12T04:58:38;100989.63;;;20.90;100.00
55010;BME280;40903;51.638;7.528;2023-08-12T05:01:03;100996.31;;;20.89;100.00
55010;BME280;40903;51.638;7.528;2023-08-12T05:03:29;100988.78;;;20.89;100.00
55010;BME280;40903;51.638;7.528;2023-08-12T05:05:54;100992.84;;;20.92;100.00
55010;BME280;40903;51.638;7.528;2023-08-12T05:08:20;100988.09;;;20.92;100.00
55010;BME280;40903;51.638;7.528;2023-08-12T05:10:48;100991.69;;;20.93;100.00
55010;BME280;40903;51.638;7.528;2023-08-12T05:13:14;100981.38;;;20.93;100.00
55010;BME280;40903;51.638;7.528;2023-08-12T05:15:40;100976.66;;;20.94;100.00
55010;BME280;40903;51.638;7.528;2023-08-12T05:18:05;100969.94;;;20.95;100.00
55010;BME280;40903;51.638;7.528;2023-08-12T05:20:31;100979.06;;;20.95;100.00
55010;BME280;40903;51.638;7.528;2023-08-12T05:22:56;100982.66;;;20.96;100.00
55010;BME280;40903;51.638;7.528;2023-08-12T05:25:22;100982.66;;;20.96;100.00
55010;BME280;40903;51.638;7.528;2023-08-12T05:27:47;100971.56;;;20.96;100.00
55010;BME280;40903;51.638;7.528;2023-08-12T05:30:13;100966.81;;;20.96;100.00
55010;BME280;40903;51.638;7.528;2023-08-12T05:32:38;100965.66;;;20.97;100.00
55010;BME280;40903;51.638;7.528;2023-08-12T05:35:04;100966.91;;;21.00;100.00
55010;BME280;40903;51.638;7.528;2023-08-12T05:37:29;100963.78;;;21.01;100.00
55010;BME280;40903;51.638;7.528;2023-08-12T05:39:55;100971.06;;;21.06;100.00
55010;BME280;40903;51.638;7.528;2023-08-12T05:42:20;100964.69;;;21.05;100.00
55010;BME280;40903;51.638;7.528;2023-08-12T05:44:46;100968.72;;;21.08;100.00
55010;BME280;40903;51.638;7.528;2023-08-12T05:47:12;100967.91;;;21.07;100.00
55010;BME280;40903;51.638;7.528;2023-08-12T05:49:37;100969.97;;;21.10;100.00
55010;BME280;40903;51.638;7.528;2023-08-12T05:52:03;100971.25;;;21.13;100.00
55010;BME280;40903;51.638;7.528;2023-08-12T05:54:28;100969.03;;;21.18;100.00
55010;BME280;40903;51.638;7.528;2023-08-12T05:56:54;100964.97;;;21.16;100.00
55010;BME280;40903;51.638;7.528;2023-08-12T05:59:19;100968.75;;;21.23;100.00
55010;BME280;40903;51.638;7.528;2023-08-12T06:01:46;100964.56;;;21.29;100.00
55010;BME280;40903;51.638;7.528;2023-08-12T06:04:11;100962.34;;;21.35;100.00
55010;BME280;40903;51.638;7.528;2023-08-12T06:06:37;100952.13;;;21.39;100.00
55010;BME280;40903;51.638;7.528;2023-08-12T06:09:02;100954.53;;;21.40;100.00
55010;BME280;40903;51.638;7.528;2023-08-12T06:11:28;100950.34;;;21.46;100.00
55010;BME280;40903;51.638;7.528;2023-08-12T06:13:54;100961.19;;;21.51;100.00
55010;BME280;40903;51.638;7.528;2023-08-12T06:16:19;100958.22;;;21.60;100.00
55010;BME280;40903;51.638;7.528;2023-08-12T06:18:45;100963.19;;;21.66;100.00
55010;BME280;40903;51.638;7.528;2023-08-12T06:21:10;100968.03;;;21.69;100.00
55010;BME280;40903;51.638;7.528;2023-08-12T06:23:35;100968.50;;;21.71;100.00
55010;BME280;40903;51.638;7.528;2023-08-12T06:26:01;100958.09;;;21.68;100.00
55010;BME280;40903;51.638;7.528;2023-08-12T06:28:27;100955.50;;;21.75;100.00
55010;BME280;40903;51.638;7.528;2023-08-12T06:30:52;100951.56;;;21.76;100.00
55010;BME280;40903;51.638;7.528;2023-08-12T06:33:18;100948.41;;;21.78;100.00
55010;BME280;40903;51.638;7.528;2023-08-12T06:35:44;100950.84;;;21.79;100.00
55010;BME280;40903;51.638;7.528;2023-08-12T06:38:09;100941.44;;;21.84;100.00
55010;BME280;40903;51.638;7.528;2023-08-12T06:40:38;100948.69;;;21.88;100.00
55010;BME280;40903;51.638;7.528;2023-08-12T06:43:04;100944.75;;;21.89;100.00
55010;BME280;40903;51.638;7.528;2023-08-12T06:45:29;100943.94;;;21.89;100.00
55010;BME280;40903;51.638;7.528;2023-08-12T06:47:55;100941.16;;;21.89;100.00
55010;BME280;40903;51.638;7.528;2023-08-12T06:50:20;100939.19;;;21.89;100.00
55010;BME280;40903;51.638;7.528;2023-08-12T06:52:46;100943.94;;;21.89;100.00
55010;BME280;40903;51.638;7.528;2023-08-12T06:55:11;100935.88;;;21.84;100.00
55010;BME280;40903;51.638;7.528;2023-08-12T06:57:36;100940.63;;;21.83;100.00
55010;BME280;40903;51.638;7.528;2023-08-12T07:00:03;100942.94;;;21.81;100.00
55010;BME280;40903;51.638;7.528;2023-08-12T07:02:29;100938.56;;;21.80;100.00
55010;BME280;40903;51.638;7.528;2023-08-12T07:04:54;100938.56;;;21.80;100.00
55010;BME280;40903;51.638;7.528;2023-08-12T07:07:20;100929.50;;;21.83;100.00
55010;BME280;40903;51.638;7.528;2023-08-12T07:09:45;100937.41;;;21.81;100.00
55010;BME280;40903;51.638;7.528;2023-08-12T07:12:10;100940.53;;;21.80;100.00
55010;BME280;40903;51.638;7.528;2023-08-12T07:14:36;100939.72;;;21.79;100.00
55010;BME280;40903;51.638;7.528;2023-08-12T07:17:01;100938.03;;;21.75;100.00
55010;BME280;40903;51.638;7.528;2023-08-12T07:19:26;100935.63;;;21.73;100.00
55010;BME280;40903;51.638;7.528;2023-08-12T07:21:52;100929.63;;;21.71;100.00
55010;BME280;40903;51.638;7.528;2023-08-12T07:24:17;100933.28;;;21.75;100.00
55010;BME280;40903;51.638;7.528;2023-08-12T07:26:43;100921.47;;;21.78;100.00
55010;BME280;40903;51.638;7.528;2023-08-12T07:29:08;100917.16;;;21.81;100.00
55010;BME280;40903;51.638;7.528;2023-08-12T07:31:34;100910.00;;;21.80;100.00
55010;BME280;40903;51.638;7.528;2023-08-12T07:33:59;100904.81;;;21.78;100.00
55010;BME280;40903;51.638;7.528;2023-08-12T07:36:25;100897.53;;;21.74;100.00
55010;BME280;40903;51.638;7.528;2023-08-12T07:38:50;100905.44;;;21.72;100.00
55010;BME280;40903;51.638;7.528;2023-08-12T07:41:15;100910.34;;;21.63;100.00
55010;BME280;40903;51.638;7.528;2023-08-12T07:43:41;100920.19;;;21.60;100.00
55010;BME280;40903;51.638;7.528;2023-08-12T07:46:06;100913.81;;;21.60;100.00
55010;BME280;40903;51.638;7.528;2023-08-12T07:48:32;100909.88;;;21.61;100.00
55010;BME280;40903;51.638;7.528;2023-08-12T07:50:57;100918.34;;;21.64;100.00
55010;BME280;40903;51.638;7.528;2023-08-12T07:53:23;100922.38;;;21.67;100.00
55010;BME280;40903;51.638;7.528;2023-08-12T07:55:49;100922.81;;;21.69;100.00
55010;BME280;40903;51.638;7.528;2023-08-12T07:58:14;100922.09;;;21.72;100.00
55010;BME280;40903;51.638;7.528;2023-08-12T08:00:40;100917.34;;;21.72;100.00
55010;BME280;40903;51.638;7.528;2023-08-12T08:03:06;100922.81;;;21.69;100.00
55010;BME280;40903;51.638;7.528;2023-08-12T08:05:31;100908.13;;;21.68;100.00
55010;BME280;40903;51.638;7.528;2023-08-12T08:07:57;100903.09;;;21.74;100.00
55010;BME280;40903;51.638;7.528;2023-08-12T08:10:22;100918.44;;;21.68;100.00
55010;BME280;40903;51.638;7.528;2023-08-12T08:12:48;100917.34;;;21.72;100.00
55010;BME280;40903;51.638;7.528;2023-08-12T08:15:13;100910.69;;;21.77;100.00
55010;BME280;40903;51.638;7.528;2023-08-12T08:17:38;100907.94;;;21.77;100.00
55010;BME280;40903;51.638;7.528;2023-08-12T08:20:04;100901.03;;;21.86;100.00
55010;BME280;40903;51.638;7.528;2023-08-12T08:22:32;100893.22;;;21.92;100.00
55010;BME280;40903;51.638;7.528;2023-08-12T08:24:57;100880.63;;;22.13;100.00
55010;BME280;40903;51.638;7.528;2023-08-12T08:27:23;100882.97;;;22.30;100.00
55010;BME280;40903;51.638;7.528;2023-08-12T08:29:48;100891.22;;;22.42;100.00
55010;BME280;40903;51.638;7.528;2023-08-12T08:32:14;100889.03;;;22.51;100.00
55010;BME280;40903;51.638;7.528;2023-08-12T08:34:40;100891.38;;;22.49;100.00
55010;BME280;40903;51.638;7.528;2023-08-12T08:37:05;100898.84;;;22.64;100.00
55010;BME280;40903;51.638;7.528;2023-08-12T08:39:30;100892.53;;;22.67;100.00
55010;BME280;40903;51.638;7.528;2023-08-12T08:41:56;100893.31;;;22.86;100.00
55010;BME280;40903;51.638;7.528;2023-08-12T08:44:22;100889.41;;;23.10;100.00
55010;BME280;40903;51.638;7.528;2023-08-12T08:46:54;100888.63;;;23.32;100.00
55010;BME280;40903;51.638;7.528;2023-08-12T08:49:21;100894.97;;;23.77;100.00
55010;BME280;40903;51.638;7.528;2023-08-12T08:51:48;100896.78;;;23.89;100.00
55010;BME280;40903;51.638;7.528;2023-08-12T08:54:15;100891.34;;;23.99;100.00
55010;BME280;40903;51.638;7.528;2023-08-12T08:56:40;100898.16;;;24.02;100.00
55010;BME280;40903;51.638;7.528;2023-08-12T08:59:07;100890.13;;;23.48;100.00
55010;BME280;40903;51.638;7.528;2023-08-12T09:01:32;100894.63;;;23.34;100.00
55010;BME280;40903;51.638;7.528;2023-08-12T09:04:00;100902.63;;;23.35;100.00
55010;BME280;40903;51.638;7.528;2023-08-12T09:06:28;100900.09;;;23.27;100.00
55010;BME280;40903;51.638;7.528;2023-08-12T09:08:54;100901.19;;;23.22;100.00
55010;BME280;40903;51.638;7.528;2023-08-12T09:11:20;100901.63;;;23.24;100.00
55010;BME280;40903;51.638;7.528;2023-08-12T09:13:46;100912.69;;;23.21;100.00
55010;BME280;40903;51.638;7.528;2023-08-12T09:16:12;100906.25;;;23.17;100.00
55010;BME280;40903;51.638;7.528;2023-08-12T09:18:40;100904.16;;;22.91;100.00
55010;BME280;40903;51.638;7.528;2023-08-12T09:21:05;100913.31;;;22.92;100.00
55010;BME280;40903;51.638;7.528;2023-08-12T09:23:41;100903.44;;;22.75;100.00
55010;BME280;40903;51.638;7.528;2023-08-12T09:26:14;100907.06;;;22.79;100.00
55010;BME280;40903;51.638;7.528;2023-08-12T09:28:41;100909.28;;;22.89;100.00
55010;BME280;40903;51.638;7.528;2023-08-12T09:31:07;100906.69;;;23.00;100.00
55010;BME280;40903;51.638;7.528;2023-08-12T09:33:38;100904.91;;;23.11;100.00
55010;BME280;40903;51.638;7.528;2023-08-12T09:36:04;100901.75;;;23.31;100.00
55010;BME280;40903;51.638;7.528;2023-08-12T09:38:30;100895.50;;;23.38;100.00
55010;BME280;40903;51.638;7.528;2023-08-12T09:40:56;100906.50;;;23.53;100.00
55010;BME280;40903;51.638;7.528;2023-08-12T09:43:24;100902.03;;;23.71;100.00
55010;BME280;40903;51.638;7.528;2023-08-12T09:45:49;100899.13;;;23.87;100.00
55010;BME280;40903;51.638;7.528;2023-08-12T09:48:16;100907.97;;;23.92;100.00
55010;BME280;40903;51.638;7.528;2023-08-12T09:50:42;100900.38;;;23.89;100.00
55010;BME280;40903;51.638;7.528;2023-08-12T09:53:08;100896.56;;;24.01;100.00
55010;BME280;40903;51.638;7.528;2023-08-12T09:55:35;100892.94;;;23.97;100.00
55010;BME280;40903;51.638;7.528;2023-08-12T09:58:05;100890.78;;;23.87;100.00
55010;BME280;40903;51.638;7.528;2023-08-12T10:00:32;100894.41;;;23.91;100.00
55010;BME280;40903;51.638;7.528;2023-08-12T10:03:00;100888.50;;;23.96;100.00
55010;BME280;40903;51.638;7.528;2023-08-12T10:05:32;100889.25;;;23.67;100.00
55010;BME280;40903;51.638;7.528;2023-08-12T10:07:58;100898.72;;;23.85;100.00
55010;BME280;40903;51.638;7.528;2023-08-12T10:10:24;100890.88;;;23.71;100.00
55010;BME280;40903;51.638;7.528;2023-08-12T10:12:50;100894.56;;;23.75;100.00
55010;BME280;40903;51.638;7.528;2023-08-12T10:15:16;100894.41;;;23.68;100.00
55010;BME280;40903;51.638;7.528;2023-08-12T10:17:42;100907.84;;;23.63;100.00
55010;BME280;40903;51.638;7.528;2023-08-12T10:20:12;100900.69;;;23.62;100.00
55010;BME280;40903;51.638;7.528;2023-08-12T10:22:39;100904.63;;;23.61;100.00
55010;BME280;40903;51.638;7.528;2023-08-12T10:25:04;100903.09;;;23.63;100.00
55010;BME280;40903;51.638;7.528;2023-08-12T10:27:33;100902.25;;;23.59;100.00
55010;BME280;40903;51.638;7.528;2023-08-12T10:29:59;100898.31;;;23.64;100.00
55010;BME280;40903;51.638;7.528;2023-08-12T10:32:28;100898.66;;;23.59;100.00
55010;BME280;40903;51.638;7.528;2023-08-12T10:34:55;100904.16;;;23.55;100.00
55010;BME280;40903;51.638;7.528;2023-08-12T10:37:24;100899.91;;;23.65;100.00
55010;BME280;40903;51.638;7.528;2023-08-12T10:39:54;100905.38;;;23.80;100.00
55010;BME280;40903;51.638;7.528;2023-08-12T10:45:14;100900.75;;;24.17;100.00
55010;BME280;40903;51.638;7.528;2023-08-12T10:47:42;100900.59;;;24.32;100.00
55010;BME280;40903;51.638;7.528;2023-08-12T10:50:22;100889.97;;;24.41;100.00
55010;BME280;40903;51.638;7.528;2023-08-12T10:52:53;100890.81;;;24.45;100.00
55010;BME280;40903;51.638;7.528;2023-08-12T10:55:24;100894.03;;;24.47;100.00
55010;BME280;40903;51.638;7.528;2023-08-12T10:57:51;100886.72;;;24.65;100.00
55010;BME280;40903;51.638;7.528;2023-08-12T11:00:23;100883.66;;;24.77;100.00
55010;BME280;40903;51.638;7.528;2023-08-12T11:02:56;100892.47;;;24.79;100.00
55010;BME280;40903;51.638;7.528;2023-08-12T11:05:22;100881.41;;;24.86;100.00
55010;BME280;40903;51.638;7.528;2023-08-12T11:07:59;100883.00;;;24.87;100.00
55010;BME280;40903;51.638;7.528;2023-08-12T11:10:32;100869.09;;;24.94;100.00
55010;BME280;40903;51.638;7.528;2023-08-12T11:12:58;100878.72;;;24.97;98.32
55010;BME280;40903;51.638;7.528;2023-08-12T11:15:41;100883.84;;;24.91;97.87
55010;BME280;40903;51.638;7.528;2023-08-12T11:18:07;100882.91;;;24.80;99.18
55010;BME280;40903;51.638;7.528;2023-08-12T11:20:33;100879.34;;;24.83;99.78
55010;BME280;40903;51.638;7.528;2023-08-12T11:23:00;100878.72;;;25.00;100.00
55010;BME280;40903;51.638;7.528;2023-08-12T11:25:28;100873.69;;;25.13;98.85
55010;BME280;40903;51.638;7.528;2023-08-12T11:27:54;100872.22;;;25.22;97.10
55010;BME280;40903;51.638;7.528;2023-08-12T11:30:21;100873.34;;;25.18;96.63
55010;BME280;40903;51.638;7.528;2023-08-12T11:32:48;100875.47;;;25.28;97.65
55010;BME280;40903;51.638;7.528;2023-08-12T11:35:15;100867.91;;;25.32;97.50
55010;BME280;40903;51.638;7.528;2023-08-12T11:37:44;100871.84;;;25.24;97.55
55010;BME280;40903;51.638;7.528;2023-08-12T11:40:11;100871.69;;;25.13;100.00
55010;BME280;40903;51.638;7.528;2023-08-12T11:42:40;100868.44;;;25.08;98.49
55010;BME280;40903;51.638;7.528;2023-08-12T11:45:07;100858.47;;;25.07;99.82
55010;BME280;40903;51.638;7.528;2023-08-12T11:47:38;100870.13;;;25.16;100.00
55010;BME280;40903;51.638;7.528;2023-08-12T11:50:04;100867.09;;;25.28;100.00
55010;BME280;40903;51.638;7.528;2023-08-12T11:52:30;100868.41;;;25.44;100.00
55010;BME280;40903;51.638;7.528;2023-08-12T11:54:56;100865.28;;;25.49;100.00
55010;BME280;40903;51.638;7.528;2023-08-12T11:57:22;100863.31;;;25.53;99.59
55010;BME280;40903;51.638;7.528;2023-08-12T11:59:51;100872.81;;;25.45;95.98
55010;BME280;40903;51.638;7.528;2023-08-12T12:02:17;100872.72;;;25.35;97.74
55010;BME280;40903;51.638;7.528;2023-08-12T12:04:42;100868.28;;;25.30;96.99
55010;BME280;40903;51.638;7.528;2023-08-12T12:07:24;100865.03;;;25.21;97.57
55010;BME280;40903;51.638;7.528;2023-08-12T12:09:51;100863.84;;;25.22;98.55
55010;BME280;40903;51.638;7.528;2023-08-12T12:12:17;100868.28;;;25.30;99.31
55010;BME280;40903;51.638;7.528;2023-08-12T12:14:43;100871.22;;;25.44;99.54
55010;BME280;40903;51.638;7.528;2023-08-12T12:17:09;100858.47;;;25.47;94.60
55010;BME280;40903;51.638;7.528;2023-08-12T12:19:40;100872.88;;;25.52;94.93
55010;BME280;40903;51.638;7.528;2023-08-12T12:22:06;100866.16;;;25.60;94.82
55010;BME280;40903;51.638;7.528;2023-08-12T12:24:43;100868.91;;;25.53;94.60
55010;BME280;40903;51.638;7.528;2023-08-12T12:27:10;100871.56;;;25.39;95.12
55010;BME280;40903;51.638;7.528;2023-08-12T12:29:36;100874.00;;;25.41;96.14
55010;BME280;40903;51.638;7.528;2023-08-12T12:32:01;100862.41;;;25.39;94.05
55010;BME280;40903;51.638;7.528;2023-08-12T12:34:27;100870.50;;;25.54;96.68
55010;BME280;40903;51.638;7.528;2023-08-12T12:36:52;100865.66;;;25.98;100.00
55010;BME280;40903;51.638;7.528;2023-08-12T12:39:18;100863.03;;;26.26;92.71
55010;BME280;40903;51.638;7.528;2023-08-12T12:41:43;100857.59;;;26.54;89.75